Time;durP1;ratioP1;P1;durP2;ratioP2;P2;SDS_P1;SDS_P2;PMS_P1;PMS_P2;Temp;Humidity;BMP_temperature;BMP_pressure;BME280_temperature;BME280_humidity;BME280_pressure;Samples;Min_cycle;Max_cycle;Signal;HPM_P1;HPM_P2
2022/07/30 00:01:28;;;;;;;25.80;16.77;;;;;;;18.14;100.00;94406.97;5020689;28;20485;-88
2022/07/30 00:03:53;;;;;;;28.02;18.60;;;;;;;18.14;100.00;94404.31;5036796;28;20122;-88
2022/07/30 00:06:19;;;;;;;32.70;20.55;;;;;;;18.03;100.00;94402.00;5020612;28;20029;-89
2022/07/30 00:08:44;;;;;;;27.33;17.42;;;;;;;18.29;100.00;94403.06;5020583;28;20123;-88
2022/07/30 00:11:10;;;;;;;25.35;17.20;;;;;;;18.18;100.00;94411.31;5036598;28;20040;-88
2022/07/30 00:13:36;;;;;;;32.25;20.75;;;;;;;18.12;100.00;94406.50;5036753;28;20450;-89
2022/07/30 00:16:02;;;;;;;38.03;22.33;;;;;;;17.94;100.00;94412.59;5019886;28;20053;-89
2022/07/30 00:18:27;;;;;;;34.90;23.55;;;;;;;18.05;100.00;94402.47;5035758;28;20354;-89
2022/07/30 00:20:53;;;;;;;26.58;19.15;;;;;;;18.56;100.00;94395.81;5036843;28;20037;-89
2022/07/30 00:23:18;;;;;;;30.40;19.80;;;;;;;18.55;100.00;94402.22;5020551;28;20033;-89
2022/07/30 00:25:44;;;;;;;29.73;20.48;;;;;;;18.48;100.00;94397.41;5036738;28;20031;-90
2022/07/30 00:28:11;;;;;;;36.45;20.75;;;;;;;18.62;100.00;94397.97;5020274;28;20087;-90
2022/07/30 00:30:39;;;;;;;34.67;23.58;;;;;;;18.41;100.00;94403.19;5036155;28;20030;-90
2022/07/30 00:33:05;;;;;;;34.92;22.20;;;;;;;18.41;100.00;94405.03;5032147;28;20033;-91
2022/07/30 00:35:30;;;;;;;33.25;21.75;;;;;;;18.54;100.00;94398.00;5017831;28;20038;-91
2022/07/30 00:37:56;;;;;;;40.30;24.67;;;;;;;18.47;100.00;94395.84;5016602;28;20494;-91
2022/07/30 00:40:21;;;;;;;32.55;23.63;;;;;;;18.67;100.00;94399.69;5024501;28;20068;-91
2022/07/30 00:42:47;;;;;;;31.23;21.52;;;;;;;18.83;100.00;94397.25;5016364;28;20044;-90
2022/07/30 00:45:14;;;;;;;31.98;20.90;;;;;;;18.82;100.00;94393.06;5019131;28;20362;-90
2022/07/30 00:47:40;;;;;;;33.03;21.58;;;;;;;18.99;100.00;94400.19;5019987;28;20037;-90
2022/07/30 00:50:08;;;;;;;32.35;23.00;;;;;;;19.15;100.00;94402.31;5019754;28;20033;-90
2022/07/30 00:52:37;;;;;;;32.53;23.48;;;;;;;19.23;100.00;94398.84;5020257;28;20044;-90
2022/07/30 00:55:03;;;;;;;31.02;21.05;;;;;;;18.96;100.00;94394.72;5018483;28;20038;-90
2022/07/30 00:57:28;;;;;;;30.85;20.27;;;;;;;19.00;100.00;94396.44;5015841;28;20029;-91
2022/07/30 00:59:54;;;;;;;35.17;23.35;;;;;;;18.83;100.00;94396.50;4999828;28;20028;-90
2022/07/30 01:02:23;;;;;;;38.75;22.65;;;;;;;18.62;100.00;94400.63;4999825;28;20075;-90
2022/07/30 01:04:48;;;;;;;32.22;21.17;;;;;;;18.77;100.00;94398.53;5015899;28;20451;-90
2022/07/30 01:07:14;;;;;;;37.20;23.42;;;;;;;18.56;100.00;94395.81;5015952;28;20021;-90
2022/07/30 01:09:39;;;;;;;33.95;22.75;;;;;;;18.72;100.00;94390.75;5016001;28;20026;-90
2022/07/30 01:12:18;;;;;;;39.05;25.05;;;;;;;18.71;100.00;94399.81;5017015;28;20335;-91
2022/07/30 01:14:44;;;;;;;37.70;24.02;;;;;;;18.62;100.00;94399.84;5015836;28;20347;-90
2022/07/30 01:17:12;;;;;;;40.75;25.20;;;;;;;18.72;100.00;94407.47;4999908;28;20030;-90
2022/07/30 01:19:48;;;;;;;40.83;24.25;;;;;;;18.69;100.00;94402.78;4999926;28;20453;-90
2022/07/30 01:22:35;;;;;;;43.88;26.33;;;;;;;18.96;100.00;94395.50;5016063;28;20021;-90
2022/07/30 01:25:19;;;;;;;37.22;22.80;;;;;;;18.85;100.00;94402.25;5000008;28;20034;-91
2022/07/30 01:27:56;;;;;;;34.40;23.63;;;;;;;18.26;100.00;94401.81;5016371;28;20493;-90
2022/07/30 01:30:34;;;;;;;38.53;23.50;;;;;;;18.37;100.00;94408.34;5006096;28;20037;-91
2022/07/30 01:33:01;;;;;;;40.97;23.58;;;;;;;18.76;100.00;94397.75;5022536;28;20026;-90
2022/07/30 01:35:28;;;;;;;34.67;21.98;;;;;;;18.84;100.00;94398.06;5005854;28;20022;-90
2022/07/30 01:37:55;;;;;;;38.33;25.63;;;;;;;18.56;100.00;94398.47;5022084;28;20342;-90
2022/07/30 01:40:22;;;;;;;41.83;25.65;;;;;;;18.27;100.00;94405.25;5022010;28;20084;-89
2022/07/30 01:42:53;;;;;;;37.67;24.13;;;;;;;18.43;100.00;94408.94;5006105;28;20383;-90
2022/07/30 01:45:21;;;;;;;40.75;23.80;;;;;;;17.90;100.00;94401.03;5022417;28;20033;-90
2022/07/30 01:47:46;;;;;;;45.25;28.20;;;;;;;17.69;100.00;94400.13;5005622;28;20115;-90
2022/07/30 01:50:13;;;;;;;44.70;24.67;;;;;;;17.90;100.00;94402.91;5005762;28;20490;-90
2022/07/30 01:52:41;;;;;;;33.30;22.38;;;;;;;18.03;100.00;94403.88;5005857;28;20120;-91
2022/07/30 01:55:08;;;;;;;40.35;24.27;;;;;;;18.20;100.00;94395.88;5021979;28;20112;-90
2022/07/30 01:57:34;;;;;;;37.28;23.42;;;;;;;18.36;100.00;94396.16;5022015;28;20029;-91
2022/07/30 02:00:03;;;;;;;37.17;22.65;;;;;;;18.55;100.00;94396.91;5021988;28;20071;-90
2022/07/30 02:02:28;;;;;;;38.97;24.33;;;;;;;18.53;100.00;94399.88;5023033;28;20026;-91
2022/07/30 02:04:53;;;;;;;41.30;23.90;;;;;;;18.36;100.00;94395.38;5005960;28;20033;-90
2022/07/30 02:07:23;;;;;;;41.33;25.42;;;;;;;18.25;100.00;94396.84;5021904;28;20108;-90
2022/07/30 02:10:18;;;;;;;33.60;22.95;;;;;;;18.45;100.00;94395.38;5021859;28;20057;-90
2022/07/30 02:12:53;;;;;;;41.22;25.75;;;;;;;18.13;100.00;94400.91;5021771;28;20033;-91
2022/07/30 02:15:33;;;;;;;41.60;25.70;;;;;;;17.77;100.00;94402.75;5021757;28;20052;-90
2022/07/30 02:18:27;;;;;;;45.88;26.10;;;;;;;17.79;100.00;94399.81;5021721;28;20351;-90
2022/07/30 02:20:59;;;;;;;46.20;28.70;;;;;;;17.74;100.00;94397.28;5021999;28;20051;-90
2022/07/30 02:23:25;;;;;;;44.63;26.58;;;;;;;18.06;100.00;94397.94;5005672;28;20121;-90
2022/07/30 02:25:51;;;;;;;40.25;25.42;;;;;;;18.14;100.00;94397.16;5021815;28;20022;-89
2022/07/30 02:28:19;;;;;;;38.45;24.10;;;;;;;18.07;100.00;94396.84;5022000;28;20071;-91
2022/07/30 02:30:52;;;;;;;33.60;21.90;;;;;;;18.30;100.00;94394.00;5005536;28;20021;-91
2022/07/30 02:33:22;;;;;;;43.00;26.08;;;;;;;18.35;100.00;94391.16;5005847;28;20029;-90
2022/07/30 02:35:50;;;;;;;43.10;28.30;;;;;;;17.89;100.00;94388.88;5021582;28;20033;-91
2022/07/30 02:38:18;;;;;;;42.67;27.35;;;;;;;17.62;100.00;94392.63;5021876;28;20431;-91
2022/07/30 02:40:44;;;;;;;49.20;31.85;;;;;;;17.65;100.00;94398.09;5002188;28;20030;-91
2022/07/30 02:43:10;;;;;;;44.97;29.95;;;;;;;17.85;100.00;94395.09;5018291;28;20034;-91
2022/07/30 02:45:39;;;;;;;46.30;27.65;;;;;;;18.16;100.00;94394.19;5018519;28;20025;-91
2022/07/30 02:48:06;;;;;;;38.35;25.73;;;;;;;18.55;100.00;94387.06;5018480;28;20025;-91
2022/07/30 02:50:33;;;;;;;36.83;23.90;;;;;;;18.95;100.00;94372.72;5018356;28;20029;-91
2022/07/30 02:52:59;;;;;;;36.85;23.23;;;;;;;18.97;100.00;94367.84;5018239;28;20037;-90
2022/07/30 02:55:26;;;;;;;42.85;24.23;;;;;;;19.24;100.00;94371.19;5018225;28;20030;-90
2022/07/30 02:57:53;;;;;;;34.53;22.85;;;;;;;19.34;100.00;94362.03;5018227;28;20026;-91
2022/07/30 03:00:20;;;;;;;37.60;22.35;;;;;;;19.34;100.00;94370.00;5018192;28;20025;-91
2022/07/30 03:02:46;;;;;;;30.50;19.52;;;;;;;19.04;100.00;94373.44;5019192;28;20461;-90
2022/07/30 03:05:12;;;;;;;39.67;23.55;;;;;;;18.76;100.00;94362.50;5001883;28;20113;-91
2022/07/30 03:07:41;;;;;;;33.55;24.13;;;;;;;18.77;100.00;94364.03;5018033;28;20037;-90
2022/07/30 03:10:07;;;;;;;38.25;24.90;;;;;;;18.73;100.00;94374.50;5018092;28;20036;-90
2022/07/30 03:12:33;;;;;;;37.63;24.52;;;;;;;18.70;100.00;94382.31;5018066;28;20112;-90
2022/07/30 03:14:59;;;;;;;43.08;25.70;;;;;;;19.05;100.00;94377.66;5017933;28;20359;-91
2022/07/30 03:17:29;;;;;;;39.92;23.73;;;;;;;18.80;100.00;94374.03;5022807;28;20084;-91
2022/07/30 03:19:55;;;;;;;40.38;26.52;;;;;;;18.69;100.00;94376.25;5021664;28;20417;-91
2022/07/30 03:22:21;;;;;;;45.50;29.75;;;;;;;19.08;100.00;94373.59;5035173;28;20057;-91
2022/07/30 03:24:48;;;;;;;40.63;25.88;;;;;;;19.45;100.00;94378.38;5037469;28;20026;-92
2022/07/30 03:27:27;;;;;;;46.65;29.13;;;;;;;19.62;100.00;94362.28;5032756;28;20333;-91
2022/07/30 03:29:54;;;;;;;42.72;24.98;;;;;;;19.67;100.00;94355.25;5002619;28;20461;-91
2022/07/30 03:32:20;;;;;;;36.97;23.05;;;;;;;19.41;100.00;94359.63;5020966;28;20486;-91
2022/07/30 03:34:46;;;;;;;39.30;25.52;;;;;;;19.35;100.00;94363.59;5020938;28;20056;-90
2022/07/30 03:37:11;;;;;;;34.97;23.25;;;;;;;19.60;100.00;94372.47;5037595;28;20030;-91
2022/07/30 03:39:38;;;;;;;39.17;25.70;;;;;;;19.64;100.00;94368.06;5038524;28;20051;-92
2022/07/30 03:42:05;;;;;;;44.92;29.58;;;;;;;19.04;100.00;94378.00;5037280;28;20026;-91
2022/07/30 03:44:33;;;;;;;41.00;27.85;;;;;;;19.01;100.00;94379.41;5037181;28;20458;-90
2022/07/30 03:46:59;;;;;;;44.17;27.48;;;;;;;19.44;100.00;94382.13;5036236;28;20025;-92
2022/07/30 03:49:25;;;;;;;44.75;28.83;;;;;;;19.51;100.00;94379.75;5017314;28;20458;-91
2022/07/30 03:51:51;;;;;;;33.08;22.33;;;;;;;19.73;100.00;94376.00;5018309;28;20026;-91
2022/07/30 03:54:17;;;;;;;39.10;25.00;;;;;;;19.60;100.00;94383.09;5001047;28;20056;-91
2022/07/30 03:56:43;;;;;;;47.47;28.52;;;;;;;19.87;100.00;94380.22;5017399;28;20111;-91
2022/07/30 03:59:08;;;;;;;37.83;24.42;;;;;;;19.91;100.00;94389.13;5001175;28;20034;-91
2022/07/30 04:01:34;;;;;;;43.40;28.90;;;;;;;19.83;100.00;94388.09;5017261;28;20022;-92
2022/07/30 04:04:05;;;;;;;31.30;19.83;;;;;;;19.92;100.00;94386.16;5017317;28;20371;-92
2022/07/30 04:06:30;;;;;;;35.90;21.05;;;;;;;19.94;100.00;94388.50;5000967;28;20335;-88
2022/07/30 04:08:56;;;;;;;46.45;28.45;;;;;;;19.49;100.00;94400.53;5017067;28;20032;-88
2022/07/30 04:11:21;;;;;;;48.80;27.67;;;;;;;19.61;100.00;94395.28;5018530;28;20331;-88
2022/07/30 04:13:48;;;;;;;56.63;33.17;;;;;;;19.48;100.00;94394.44;5017158;28;20018;-87
2022/07/30 04:16:29;;;;;;;51.42;29.70;;;;;;;19.60;100.00;94406.25;5000852;28;20084;-88
2022/07/30 04:18:55;;;;;;;46.63;28.60;;;;;;;19.56;100.00;94406.13;5016946;28;20056;-88
2022/07/30 04:21:22;;;;;;;49.53;29.33;;;;;;;19.54;100.00;94405.66;5016952;28;20079;-88
2022/07/30 04:23:49;;;;;;;50.35;28.10;;;;;;;19.81;100.00;94408.91;5000577;28;20068;-88
2022/07/30 04:26:15;;;;;;;48.25;28.88;;;;;;;19.99;100.00;94406.91;5016871;28;20329;-88
2022/07/30 04:28:41;;;;;;;43.78;27.60;;;;;;;19.89;100.00;94410.72;5016742;28;20076;-87
2022/07/30 04:31:07;;;;;;;37.80;24.38;;;;;;;19.74;100.00;94421.94;5016714;28;20034;-88
2022/07/30 04:33:32;;;;;;;39.95;25.30;;;;;;;19.58;100.00;94430.50;5000741;28;20026;-89
2022/07/30 04:35:58;;;;;;;32.08;20.80;;;;;;;19.62;100.00;94420.75;5000494;28;20564;-88
2022/07/30 04:38:23;;;;;;;31.30;20.67;;;;;;;19.33;100.00;94430.31;5000399;28;20025;-87
2022/07/30 04:40:51;;;;;;;33.03;22.10;;;;;;;18.65;100.00;94436.38;5000134;28;20458;-87
2022/07/30 04:43:17;;;;;;;34.10;21.65;;;;;;;18.53;100.00;94441.56;5017652;28;20032;-87
2022/07/30 04:45:43;;;;;;;35.63;23.10;;;;;;;18.77;100.00;94448.97;5000636;28;20121;-87
2022/07/30 04:48:09;;;;;;;39.40;24.58;;;;;;;18.88;100.00;94446.75;5016760;28;20076;-87
2022/07/30 04:50:37;;;;;;;35.05;23.65;;;;;;;19.47;100.00;94447.91;5017600;28;20022;-87
2022/07/30 04:53:03;;;;;;;33.75;22.50;;;;;;;19.64;100.00;94445.13;5015921;28;20022;-87
2022/07/30 04:55:29;;;;;;;37.67;24.83;;;;;;;19.28;100.00;94443.78;5000152;28;20099;-87
2022/07/30 04:57:55;;;;;;;34.72;22.23;;;;;;;19.10;100.00;94452.94;5016283;28;20022;-87
2022/07/30 05:00:21;;;;;;;40.08;24.88;;;;;;;19.05;100.00;94444.03;5016247;28;20022;-87
2022/07/30 05:02:48;;;;;;;41.70;27.63;;;;;;;19.05;100.00;94449.34;4999463;28;20098;-87
2022/07/30 05:05:14;;;;;;;32.08;22.63;;;;;;;19.20;100.00;94452.56;5016153;28;20109;-87
2022/07/30 05:07:40;;;;;;;32.45;20.05;;;;;;;19.18;100.00;94455.56;5016172;28;20021;-87
2022/07/30 05:10:07;;;;;;;31.80;19.85;;;;;;;19.33;100.00;94462.19;5016138;28;20331;-87
2022/07/30 05:12:40;;;;;;;36.45;22.48;;;;;;;19.40;100.00;94456.38;5016107;28;20022;-87
2022/07/30 05:15:16;;;;;;;33.47;20.80;;;;;;;19.41;100.00;94444.66;5016073;28;20104;-87
2022/07/30 05:17:43;;;;;;;25.30;17.75;;;;;;;19.75;100.00;94442.09;5015992;28;20120;-88
2022/07/30 05:20:12;;;;;;;37.50;22.77;;;;;;;19.14;100.00;94449.31;5015973;28;20451;-88
2022/07/30 05:22:37;;;;;;;33.90;22.13;;;;;;;19.03;100.00;94450.78;5029331;28;20029;-88
2022/07/30 05:25:18;;;;;;;28.67;19.25;;;;;;;19.73;100.00;94447.75;5019394;28;20028;-87
2022/07/30 05:27:49;;;;;;;30.40;20.17;;;;;;;19.75;100.00;94442.09;5034950;28;20446;-87
2022/07/30 05:30:15;;;;;;;31.73;19.30;;;;;;;19.86;100.00;94439.81;5000006;28;20420;-88
2022/07/30 05:32:43;;;;;;;32.70;18.65;;;;;;;19.90;100.00;94441.50;5014639;28;20026;-88
2022/07/30 05:35:34;;;;;;;29.70;19.48;;;;;;;19.86;100.00;94437.16;4999626;28;20390;-89
2022/07/30 05:39:24;;;;;;;28.85;18.90;;;;;;;19.87;100.00;94442.16;4992902;28;20037;-89
2022/07/30 05:41:38;;;;;;;;;;;;;;;;;;;;;
2022/07/30 05:44:04;;;;;;;32.40;21.20;;;;;;;19.09;100.00;94446.84;5015216;28;20022;-87
2022/07/30 05:46:37;;;;;;;26.67;16.10;;;;;;;19.10;100.00;94447.63;5000161;28;20106;-88
2022/07/30 05:49:05;;;;;;;35.00;21.83;;;;;;;19.66;100.00;94439.50;5000585;28;20343;-88
2022/07/30 05:51:30;;;;;;;25.83;18.27;;;;;;;20.06;100.00;94435.63;5015780;28;20033;-88
2022/07/30 05:53:55;;;;;;;31.38;19.35;;;;;;;20.31;100.00;94435.72;4999104;28;20077;-88
2022/07/30 05:56:21;;;;;;;30.08;19.90;;;;;;;20.39;100.00;94434.88;4999382;28;20486;-88
2022/07/30 06:01:46;;;;;;;23.80;15.63;;;;;;;20.60;100.00;94432.16;5016319;28;20092;-87
2022/07/30 06:04:15;;;;;;;33.60;20.02;;;;;;;20.65;100.00;94436.47;4998973;28;20036;-87
2022/07/30 06:06:40;;;;;;;23.67;15.52;;;;;;;20.87;100.00;94437.22;5016767;28;20029;-87
2022/07/30 06:09:06;;;;;;;30.88;20.88;;;;;;;21.13;100.00;94436.13;5016749;28;20030;-87
2022/07/30 06:11:31;;;;;;;31.35;20.38;;;;;;;20.71;100.00;94439.72;5015502;28;20053;-87
2022/07/30 06:14:00;;;;;;;36.17;22.48;;;;;;;20.61;100.00;94443.56;5015116;28;20321;-87
2022/07/30 06:16:30;;;;;;;39.17;21.17;;;;;;;21.06;100.00;94439.34;5018273;28;20026;-87
2022/07/30 06:18:58;;;;;;;35.45;21.20;;;;;;;21.01;100.00;94437.69;5019428;28;20453;-89
2022/07/30 06:21:23;;;;;;;32.05;18.92;;;;;;;21.33;100.00;94443.22;5020434;28;20022;-88
2022/07/30 06:23:49;;;;;;;33.05;17.40;;;;;;;21.50;100.00;94448.66;5018896;28;20030;-89
2022/07/30 06:26:20;;;;;;;27.85;18.30;;;;;;;21.23;100.00;94441.03;5002909;28;20135;-91
2022/07/30 06:28:48;;;;;;;44.63;21.00;;;;;;;21.39;100.00;94437.69;5018812;28;20145;-89
2022/07/30 06:31:13;;;;;;;37.80;18.60;;;;;;;21.65;100.00;94445.31;5018943;28;20030;-88
2022/07/30 06:33:49;;;;;;;39.50;19.75;;;;;;;21.59;100.00;94433.31;5002680;28;20045;-88
2022/07/30 06:36:24;;;;;;;;;;;;;;;;;;;;;
2022/07/30 06:38:50;;;;;;;26.25;17.33;;;;;;;21.87;100.00;94446.72;5018635;28;20026;-88
2022/07/30 06:41:25;;;;;;;24.90;16.25;;;;;;;21.82;100.00;94452.31;5019066;28;20113;-88
2022/07/30 06:43:51;;;;;;;27.90;16.50;;;;;;;21.70;100.00;94439.75;5024527;28;20411;-88
2022/07/30 06:46:18;;;;;;;24.15;14.98;;;;;;;21.70;100.00;94439.00;5038261;28;20029;-88
2022/07/30 06:49:07;;;;;;;20.67;14.32;;;;;;;22.07;100.00;94438.88;5039830;28;20048;-88
2022/07/30 06:52:16;;;;;;;22.35;15.05;;;;;;;21.91;100.00;94435.38;5039182;28;20036;-87
2022/07/30 06:54:42;;;;;;;22.55;14.32;;;;;;;22.28;100.00;94428.03;5004107;28;20423;-88
2022/07/30 06:57:43;;;;;;;;;;;;;;;;;;;;;
2022/07/30 07:00:09;;;;;;;29.35;12.55;;;;;;;22.41;100.00;94439.44;5014882;28;20045;-88
2022/07/30 07:02:45;;;;;;;;;;;;;;;;;;;;;
2022/07/30 07:05:29;;;;;;;;;;;;;;;;;;;;;
2022/07/30 07:07:58;;;;;;;23.33;13.63;;;;;;;22.37;100.00;94445.78;5018195;28;20030;-86
2022/07/30 07:13:27;;;;;;;;;;;;;;;;;;;;;
2022/07/30 07:15:59;;;;;;;15.02;10.75;;;;;;;22.50;100.00;94435.84;5017764;28;20028;-85
2022/07/30 07:18:31;;;;;;;20.65;9.32;;;;;;;22.63;100.00;94444.56;5018360;28;20391;-87
2022/07/30 07:21:36;;;;;;;;;;;;;;;;;;;;;
2022/07/30 07:24:43;;;;;;;;;;;;;;;;;;;;;
2022/07/30 07:27:19;;;;;;;15.10;10.18;;;;;;;22.63;100.00;94452.59;4962730;28;20036;-86
2022/07/30 07:29:47;;;;;;;15.90;9.88;;;;;;;23.15;100.00;94448.13;5018272;28;20029;-87
2022/07/30 07:32:12;;;;;;;15.75;9.77;;;;;;;23.10;100.00;94456.41;5002058;28;20049;-86
2022/07/30 07:34:37;;;;;;;16.23;10.27;;;;;;;23.31;100.00;94461.50;5017368;28;20018;-87
2022/07/30 07:37:03;;;;;;;13.27;9.70;;;;;;;22.93;100.00;94452.19;5017607;28;20037;-87
2022/07/30 07:39:28;;;;;;;17.17;8.73;;;;;;;23.32;100.00;94459.59;5001782;28;20324;-88
2022/07/30 07:41:54;;;;;;;16.20;8.93;;;;;;;23.37;100.00;94462.78;5001505;28;20022;-86
2022/07/30 07:44:19;;;;;;;19.90;9.25;;;;;;;22.65;100.00;94458.34;5001226;28;20022;-88
2022/07/30 07:46:47;;;;;;;14.70;8.80;;;;;;;23.29;100.00;94464.53;5001446;28;20068;-86
2022/07/30 07:49:12;;;;;;;10.27;7.43;;;;;;;23.48;100.00;94465.72;5017269;28;20051;-87
2022/07/30 07:51:38;;;;;;;13.38;7.32;;;;;;;23.64;100.00;94464.91;5001290;28;20034;-87
2022/07/30 07:54:03;;;;;;;5.75;4.10;;;;;;;23.40;100.00;94464.78;5001167;28;20021;-88
2022/07/30 07:56:29;;;;;;;5.32;3.90;;;;;;;23.24;100.00;94466.66;5017345;28;20036;-88
2022/07/30 07:58:54;;;;;;;5.45;3.00;;;;;;;23.77;100.00;94469.00;5017109;28;20175;-87
2022/07/30 08:01:20;;;;;;;4.95;3.17;;;;;;;23.96;100.00;94468.28;5018470;28;20097;-86
2022/07/30 08:03:46;;;;;;;4.47;2.75;;;;;;;23.67;100.00;94469.53;5000848;28;20057;-87
2022/07/30 08:06:12;;;;;;;3.38;2.30;;;;;;;23.70;100.00;94476.91;5034131;28;20079;-87
2022/07/30 08:08:37;;;;;;;5.53;2.55;;;;;;;23.29;100.00;94479.78;5036899;28;20048;-89
2022/07/30 08:11:04;;;;;;;4.07;2.60;;;;;;;22.74;100.00;94470.44;5037032;28;20021;-91
2022/07/30 08:13:30;;;;;;;4.40;3.05;;;;;;;22.81;100.00;94471.72;5020271;28;20029;-87
2022/07/30 08:15:55;;;;;;;5.60;2.63;;;;;;;23.12;100.00;94481.66;5020389;28;20025;-89
2022/07/30 08:18:28;;;;;;;4.28;2.63;;;;;;;23.02;100.00;94482.16;5020537;28;20031;-88
2022/07/30 08:20:54;;;;;;;2.40;1.90;;;;;;;23.40;100.00;94490.75;5036863;28;20029;-87
2022/07/30 08:23:21;;;;;;;5.93;2.67;;;;;;;23.11;100.00;94474.00;5036552;28;20032;-86
2022/07/30 08:25:47;;;;;;;8.93;2.92;;;;;;;23.24;100.00;94482.69;5036534;28;20021;-87
2022/07/30 08:28:12;;;;;;;6.50;2.78;;;;;;;23.60;100.00;94485.44;5036534;28;20026;-87
2022/07/30 08:30:40;;;;;;;4.85;2.28;;;;;;;23.81;100.00;94483.22;5020260;28;20036;-88
2022/07/30 08:33:05;;;;;;;7.00;2.78;;;;;;;24.00;100.00;94490.50;5036256;28;20029;-90
2022/07/30 08:35:31;;;;;;;9.48;3.10;;;;;;;24.08;100.00;94491.47;5036093;28;20342;-86
2022/07/30 08:37:56;;;;;;;4.65;2.50;;;;;;;24.42;100.00;94485.63;5035284;28;20029;-89
2022/07/30 08:40:24;;;;;;;3.72;1.88;;;;;;;24.49;100.00;94480.44;5036438;28;20036;-89
2022/07/30 08:42:50;;;;;;;2.63;1.67;;;;;;;24.63;100.00;94484.50;5036224;28;20029;-89
2022/07/30 08:45:17;;;;;;;3.20;1.65;;;;;;;24.88;100.00;94486.84;5036283;28;20076;-87
2022/07/30 08:47:44;;;;;;;4.15;1.90;;;;;;;24.48;100.00;94480.75;5019725;28;20184;-88
2022/07/30 08:50:10;;;;;;;4.15;2.00;;;;;;;24.66;100.00;94478.44;5036151;28;20029;-86
2022/07/30 08:52:36;;;;;;;3.38;2.10;;;;;;;24.20;100.00;94487.13;5019229;28;20079;-87
2022/07/30 08:55:06;;;;;;;3.80;1.88;;;;;;;24.13;100.00;94485.84;5036132;28;20354;-88
2022/07/30 08:57:33;;;;;;;4.25;2.40;;;;;;;23.93;100.00;94486.91;5035972;28;20034;-87
2022/07/30 08:59:59;;;;;;;5.45;2.30;;;;;;;24.03;100.00;94493.63;5035805;28;20029;-87
2022/07/30 09:02:25;;;;;;;4.18;1.88;;;;;;;23.98;100.00;94490.09;5019723;28;20032;-86
2022/07/30 09:04:50;;;;;;;9.00;2.30;;;;;;;23.95;100.00;94492.69;5035825;28;20036;-86
2022/07/30 09:07:16;;;;;;;14.80;3.70;;;;;;;24.18;100.00;94498.19;5035696;28;20017;-86
2022/07/30 09:09:41;;;;;;;3.88;1.98;;;;;;;24.81;100.00;94500.91;5019410;28;20061;-87
2022/07/30 09:12:35;;;;;;;3.97;2.45;;;;;;;25.27;100.00;94490.22;5035889;28;20029;-88
2022/07/30 09:15:07;;;;;;;5.55;2.30;;;;;;;25.52;100.00;94497.88;5036800;28;20025;-88
2022/07/30 09:18:01;;;;;;;4.75;2.33;;;;;;;25.58;100.00;94500.28;5020469;28;20084;-89
2022/07/30 09:20:29;;;;;;;3.85;2.50;;;;;;;25.71;100.00;94498.94;5015646;28;20037;-89
2022/07/30 09:23:27;;;;;;;;;;;;;;;;;;;;;
2022/07/30 09:26:03;;;;;;;;;;;;;;;;;;;;;
2022/07/30 09:28:31;;;;;;;4.57;2.33;;;;;;;26.10;100.00;94493.31;5016812;28;20037;-88
2022/07/30 09:30:59;;;;;;;3.78;2.10;;;;;;;26.18;100.00;94490.75;5031704;28;20382;-87
2022/07/30 09:33:37;;;;;;;3.75;2.20;;;;;;;26.35;100.00;94492.88;5035494;28;20029;-88
2022/07/30 09:36:05;;;;;;;2.90;2.00;;;;;;;26.10;100.00;94489.88;5015080;28;20056;-89
2022/07/30 09:38:52;;;;;;;6.88;2.40;;;;;;;26.28;100.00;94487.44;5035617;28;20029;-89
2022/07/30 09:41:55;;;;;;;;;;;;;;;;;;;;;
2022/07/30 09:44:30;;;;;;;3.85;2.78;;;;;;;26.08;100.00;94487.53;5015905;28;20051;-87
2022/07/30 09:47:01;;;;;;;7.75;2.53;;;;;;;25.52;99.10;94495.19;5024810;28;20026;-89
2022/07/30 09:49:32;;;;;;;3.47;2.40;;;;;;;24.70;100.00;94487.28;5020595;28;20148;-88
2022/07/30 09:52:12;;;;;;;2.50;2.17;;;;;;;25.49;100.00;94487.88;5019472;28;20042;-88
2022/07/30 09:54:59;;;;;;;5.82;2.25;;;;;;;26.02;100.00;94483.63;5011163;28;20060;-88
2022/07/30 09:57:25;;;;;;;3.50;2.60;;;;;;;26.43;100.00;94487.59;5020754;28;20045;-89
2022/07/30 09:59:51;;;;;;;3.83;2.70;;;;;;;26.20;100.00;94485.78;5019407;28;20025;-86
2022/07/30 10:02:32;;;;;;;4.75;2.58;;;;;;;25.65;100.00;94493.09;5020438;28;20099;-89
2022/07/30 10:05:12;;;;;;;4.15;2.70;;;;;;;25.42;100.00;94482.41;5039084;28;20025;-89
2022/07/30 10:07:54;;;;;;;5.20;2.95;;;;;;;25.71;100.00;94482.84;5024283;28;20030;-87
2022/07/30 10:10:22;;;;;;;3.03;2.42;;;;;;;26.19;96.02;94479.66;5016111;28;20025;-88
2022/07/30 10:12:52;;;;;;;5.13;3.03;;;;;;;26.09;93.10;94486.41;5038588;28;20025;-87
2022/07/30 10:15:20;;;;;;;6.13;2.80;;;;;;;26.38;96.23;94484.09;5039086;28;20116;-88
2022/07/30 10:17:47;;;;;;;4.68;2.40;;;;;;;26.28;93.00;94484.75;5032757;28;20107;-89
2022/07/30 10:20:13;;;;;;;3.58;2.15;;;;;;;25.68;96.10;94475.53;5031994;28;20088;-88
2022/07/30 10:22:39;;;;;;;2.97;2.40;;;;;;;26.19;96.12;94474.28;5018736;28;20029;-87
2022/07/30 10:25:05;;;;;;;2.88;2.30;;;;;;;26.89;95.18;94470.41;5020262;28;20037;-88
2022/07/30 10:27:33;;;;;;;3.58;2.42;;;;;;;27.23;92.36;94475.72;5018927;28;20021;-89
2022/07/30 10:29:58;;;;;;;5.00;2.33;;;;;;;27.20;83.46;94463.78;5019065;28;20109;-88
2022/07/30 10:32:25;;;;;;;4.55;1.83;;;;;;;27.05;85.51;94462.91;5002271;28;20065;-87
2022/07/30 10:34:51;;;;;;;6.03;2.20;;;;;;;27.06;86.39;94463.66;5028504;28;20080;-88
2022/07/30 10:37:21;;;;;;;2.30;2.10;;;;;;;27.14;82.03;94454.53;5018406;28;20033;-87
2022/07/30 10:39:54;;;;;;;2.10;1.73;;;;;;;27.65;81.33;94461.06;5027596;28;20355;-88
2022/07/30 10:43:04;;;;;;;5.90;2.08;;;;;;;27.00;76.52;94473.97;5019358;28;20030;-87
2022/07/30 10:46:00;;;;;;;2.97;1.60;;;;;;;27.38;76.67;94474.69;5009359;28;20077;-88
2022/07/30 10:48:31;;;;;;;4.78;1.58;;;;;;;26.77;73.94;94471.44;5018624;28;20171;-88
2022/07/30 10:51:04;;;;;;;5.57;1.40;;;;;;;27.59;73.16;94467.94;5019801;28;20022;-87
2022/07/30 10:53:37;;;;;;;8.27;1.88;;;;;;;27.55;73.57;94469.06;5002550;28;20037;-86
2022/07/30 10:56:23;;;;;;;2.30;1.75;;;;;;;28.14;75.17;94468.22;5019351;28;20351;-87
2022/07/30 10:59:12;;;;;;;3.38;1.80;;;;;;;28.87;76.80;94461.16;5017955;28;20029;-87
2022/07/30 11:02:02;;;;;;;4.10;2.15;;;;;;;27.88;76.41;94464.66;5017456;28;20167;-88
2022/07/30 11:04:28;;;;;;;2.65;1.77;;;;;;;27.16;82.47;94464.91;5019123;28;20320;-87
2022/07/30 11:07:26;;;;;;;3.30;1.60;;;;;;;27.14;85.10;94462.59;5033203;28;20017;-88
2022/07/30 11:09:59;;;;;;;3.28;2.20;;;;;;;26.99;83.67;94463.63;5037935;28;20095;-89
2022/07/30 11:12:44;;;;;;;3.65;2.08;;;;;;;26.95;79.28;94458.97;5037897;28;20089;-87
2022/07/30 11:15:14;;;;;;;3.53;1.73;;;;;;;27.16;76.09;94457.63;5037640;28;20083;-87
2022/07/30 11:18:00;;;;;;;3.55;2.00;;;;;;;27.53;83.60;94461.38;5021635;28;20068;-87
2022/07/30 11:20:27;;;;;;;3.83;1.92;;;;;;;27.63;78.03;94457.97;5037884;28;20467;-88
2022/07/30 11:23:10;;;;;;;2.90;1.80;;;;;;;27.67;80.64;94457.97;5037195;28;20044;-87
2022/07/30 11:25:35;;;;;;;4.20;2.10;;;;;;;27.77;74.79;94459.97;5037793;28;20067;-87
2022/07/30 11:28:01;;;;;;;2.45;1.70;;;;;;;27.56;73.71;94457.91;5039279;28;20357;-87
2022/07/30 11:30:32;;;;;;;5.35;1.88;;;;;;;27.76;72.33;94452.25;5037478;28;20029;-87
2022/07/30 11:33:10;;;;;;;2.60;1.90;;;;;;;28.03;73.46;94468.94;5036933;28;20402;-88
2022/07/30 11:35:42;;;;;;;3.70;2.00;;;;;;;26.82;74.76;94455.75;5037351;28;20034;-88
2022/07/30 11:38:17;;;;;;;5.60;1.70;;;;;;;27.56;72.99;94452.53;5037575;28;20029;-89
2022/07/30 11:44:46;;;;;;;;;;;;;;;;;;;;;
2022/07/30 12:01:35;;;;;;;;;;;;;;;;;;;;;
2022/07/30 12:04:07;;;;;;;5.18;2.08;;;;;;;28.07;70.96;94444.75;5036484;28;20441;-87
2022/07/30 12:06:50;;;;;;;5.28;2.08;;;;;;;28.39;68.58;94444.09;5037263;28;20032;-87
2022/07/30 12:09:42;;;;;;;3.90;2.10;;;;;;;28.76;71.46;94437.66;5037897;28;20037;-88
2022/07/30 12:12:26;;;;;;;2.22;1.70;;;;;;;28.48;64.86;94443.75;5036400;28;20045;-89